Flight Track Log - Related Links

Times and Time Zones

All times are in EDT time to prevent confusion due to time zone crossing. See the N777NC flight status page for this flight to view local times or setup timezone preferences in your user account.

Time Position Orientation Groundspeed Altitude Reporting Facility
EDT Latitude Longitude Course Direction KTS MPH feet Rate Location/Type
Fri 07:33:52 PM 33.9278 -81.2306 259° West 211 243 3,000  Level Jacksonville Center
Fri 07:34:52 PM 33.8908 -81.2864 231° Southwest 211 243 4,700 2,150 Climbing Jacksonville Center
Fri 07:35:52 PM 33.8436 -81.3522 229° Southwest 238 274 7,300 2,450 Climbing Jacksonville Center
Fri 07:36:00 PM 33.8162 -81.2875 261° West  Level FlightAware Approximate
Fri 07:36:52 PM 33.7986 -81.4256 234° Southwest 256 295 9,600  Level Jacksonville Center
Fri 07:37:00 PM 33.8050 -81.3771 261° West  Level FlightAware Approximate
Fri 07:38:00 PM 33.7918 -81.4662 259° West  Level FlightAware Approximate
Fri 07:38:45 PM 33.7575 -81.6053 255° West 300 345 12,400  Level Atlanta Center
Fri 07:39:00 PM 33.7770 -81.5549 259° West  Level FlightAware Approximate
Fri 07:39:45 PM 33.7431 -81.7181 261° West 327 376 15,500  Level Atlanta Center
Fri 07:40:45 PM 33.7347 -81.8281 265° West 339 390 16,900 1,700 Climbing Atlanta Center
Fri 07:41:45 PM 33.7283 -81.9481 266° West 352 405 18,900 1,850 Climbing Atlanta Center
Fri 07:42:45 PM 33.7242 -82.0706 268° West 363 418 20,600 1,600 Climbing Atlanta Center
Fri 07:43:45 PM 33.6844 -82.2014 250° West 374 430 22,100 700 Climbing Atlanta Center
Fri 07:44:45 PM 33.6383 -82.3272 246° West 401 461 22,000 -50 Descending Atlanta Center
Fri 07:45:45 PM 33.5856 -82.4503 243° Southwest 409 471 22,000  Level Atlanta Center
Fri 07:46:45 PM 33.5308 -82.5736 242° Southwest 414 476 22,000  Level Atlanta Center
Fri 07:47:45 PM 33.4822 -82.6939 244° Southwest 414 476 22,000  Level Atlanta Center
Fri 07:48:45 PM 33.4269 -82.8167 242° Southwest 414 476 22,000  Level Atlanta Center
Fri 07:49:45 PM 33.3781 -82.9269 242° Southwest 414 476 22,000 -500 Level Atlanta Center
Fri 07:50:45 PM 33.3206 -83.0519 241° Southwest 427 491 21,000 -1,450 Descending Atlanta Center
Fri 07:51:45 PM 33.2736 -83.1642 243° Southwest 405 466 19,100 -2,500 Descending Atlanta Center
Fri 07:52:45 PM 33.2325 -83.2739 246° West 375 432 16,000 -2,950 Descending Atlanta Center
Fri 07:53:45 PM 33.1850 -83.3836 243° Southwest 365 420 13,200 -1,850 Descending Atlanta Center
Fri 07:54:45 PM 33.1481 -83.4806 246° West 345 397 12,300 -600 Descending Atlanta Center
Fri 07:55:45 PM 33.1025 -83.5825 242° Southwest 327 376 12,000 -150 Descending Atlanta Center
Fri 07:56:45 PM 33.1217 -83.6594 287° West 249 287 12,000 58 Level Atlanta Center
Fri 07:57:29 PM 33.1667 -83.7000 323° Northwest 276 318 12,100 61 Climbing Atlanta TRACON
Fri 07:58:23 PM 33.2167 -83.7500 320° Northwest 275 316 12,100 -550 Level Atlanta TRACON
Fri 07:59:29 PM 33.2833 -83.8167 320° Northwest 260 299 11,000 -1,521 Descending Atlanta TRACON
Fri 08:00:45 PM 33.3475 -83.8922 315° West 264 304 8,500 -1,368 Descending Atlanta Center
Fri 08:01:45 PM 33.3850 -83.9642 302° West 257 296 7,900 -500 Descending Atlanta Center
Fri 08:02:45 PM 33.4228 -84.0314 304° West 250 288 7,500 -1,000 Descending Atlanta Center
Fri 08:03:45 PM 33.4875 -84.0636 337° Northwest 235 270 5,900 -1,600 Descending Atlanta Center
Fri 08:04:45 PM 33.5522 -84.0961 337° Northwest 240 276 4,300 -1,101 Descending Atlanta Center
Fri 08:06:23 PM 33.6167 -84.1833 312° West 226 260 3,000 -456 Descending Atlanta TRACON
Fri 08:07:23 PM 33.6167 -84.2500 270° West 171 197 3,100 100 Climbing Atlanta TRACON

Login

Don't have an account? Register now (free) for customized features, flight alerts, and more!